sensor_id;sensor_type;location;lat;lon;timestamp;pressure;altitude;pressure_sealevel;temperature
82780;BMP280;72511;45.120;20.720;2024-03-07T00:03:23;100120.41;;;8.71
82780;BMP280;72511;45.120;20.720;2024-03-07T00:13:25;100125.00;;;8.74
82780;BMP280;72511;45.120;20.720;2024-03-07T00:23:26;100110.81;;;8.70
82780;BMP280;72511;45.120;20.720;2024-03-07T00:33:28;100081.00;;;8.54
82780;BMP280;72511;45.120;20.720;2024-03-07T00:43:29;100092.09;;;8.60
82780;BMP280;72511;45.120;20.720;2024-03-07T00:53:31;100094.44;;;8.58
82780;BMP280;72511;45.120;20.720;2024-03-07T01:03:33;100102.59;;;8.54
82780;BMP280;72511;45.120;20.720;2024-03-07T01:13:38;100067.44;;;8.35
82780;BMP280;72511;45.120;20.720;2024-03-07T01:23:40;100081.28;;;8.37
82780;BMP280;72511;45.120;20.720;2024-03-07T01:33:41;100084.78;;;8.34
82780;BMP280;72511;45.120;20.720;2024-03-07T01:43:43;100073.44;;;8.19
82780;BMP280;72511;45.120;20.720;2024-03-07T01:53:44;100089.81;;;8.32
82780;BMP280;72511;45.120;20.720;2024-03-07T02:03:47;100075.25;;;8.29
82780;BMP280;72511;45.120;20.720;2024-03-07T02:13:48;100062.59;;;8.23
82780;BMP280;72511;45.120;20.720;2024-03-07T02:23:49;100058.16;;;8.13
82780;BMP280;72511;45.120;20.720;2024-03-07T02:33:51;100057.19;;;8.00
82780;BMP280;72511;45.120;20.720;2024-03-07T02:43:53;100051.63;;;7.84
82780;BMP280;72511;45.120;20.720;2024-03-07T02:53:55;100039.91;;;7.67
82780;BMP280;72511;45.120;20.720;2024-03-07T03:03:56;100055.63;;;7.72
82780;BMP280;72511;45.120;20.720;2024-03-07T03:13:57;100054.03;;;7.75
82780;BMP280;72511;45.120;20.720;2024-03-07T03:23:59;100064.66;;;7.89
82780;BMP280;72511;45.120;20.720;2024-03-07T03:34:00;100053.56;;;7.83
82780;BMP280;72511;45.120;20.720;2024-03-07T03:44:02;100068.06;;;7.93
82780;BMP280;72511;45.120;20.720;2024-03-07T03:54:04;100067.28;;;7.92
82780;BMP280;72511;45.120;20.720;2024-03-07T04:04:06;100072.91;;;8.05
82780;BMP280;72511;45.120;20.720;2024-03-07T04:14:08;100081.28;;;8.10
82780;BMP280;72511;45.120;20.720;2024-03-07T04:24:09;100066.09;;;7.93
82780;BMP280;72511;45.120;20.720;2024-03-07T04:34:11;100074.53;;;7.99
82780;BMP280;72511;45.120;20.720;2024-03-07T04:44:12;100086.69;;;8.10
82780;BMP280;72511;45.120;20.720;2024-03-07T04:54:13;100096.78;;;8.03
82780;BMP280;72511;45.120;20.720;2024-03-07T05:04:16;100085.13;;;7.83
82780;BMP280;72511;45.120;20.720;2024-03-07T05:14:17;100122.41;;;7.88
82780;BMP280;72511;45.120;20.720;2024-03-07T05:24:19;100141.91;;;7.99
82780;BMP280;72511;45.120;20.720;2024-03-07T05:34:21;100168.09;;;8.25
82780;BMP280;72511;45.120;20.720;2024-03-07T05:44:24;100176.75;;;8.13
82780;BMP280;72511;45.120;20.720;2024-03-07T05:54:25;100183.34;;;7.75
82780;BMP280;72511;45.120;20.720;2024-03-07T06:04:27;100197.56;;;7.79
82780;BMP280;72511;45.120;20.720;2024-03-07T06:14:28;100216.50;;;7.68
82780;BMP280;72511;45.120;20.720;2024-03-07T06:24:31;100213.84;;;7.65
82780;BMP280;72511;45.120;20.720;2024-03-07T06:34:33;100227.94;;;7.39
82780;BMP280;72511;45.120;20.720;2024-03-07T06:44:34;100235.47;;;7.10
82780;BMP280;72511;45.120;20.720;2024-03-07T06:54:35;100235.94;;;6.91
82780;BMP280;72511;45.120;20.720;2024-03-07T07:04:37;100240.59;;;6.90
82780;BMP280;72511;45.120;20.720;2024-03-07T07:14:45;100249.16;;;6.68
82780;BMP280;72511;45.120;20.720;2024-03-07T07:24:47;100248.41;;;6.64
82780;BMP280;72511;45.120;20.720;2024-03-07T07:34:49;100235.84;;;6.43
82780;BMP280;72511;45.120;20.720;2024-03-07T07:44:50;100243.84;;;6.54
82780;BMP280;72511;45.120;20.720;2024-03-07T07:54:51;100265.72;;;6.56
82780;BMP280;72511;45.120;20.720;2024-03-07T08:04:52;100274.19;;;6.54
82780;BMP280;72511;45.120;20.720;2024-03-07T08:14:54;100285.41;;;6.35
82780;BMP280;72511;45.120;20.720;2024-03-07T08:24:56;100282.75;;;6.14
82780;BMP280;72511;45.120;20.720;2024-03-07T08:34:58;100279.34;;;6.03
82780;BMP280;72511;45.120;20.720;2024-03-07T08:45:04;100294.66;;;6.17
82780;BMP280;72511;45.120;20.720;2024-03-07T08:55:06;100258.22;;;5.98
82780;BMP280;72511;45.120;20.720;2024-03-07T09:05:11;100299.25;;;6.09
82780;BMP280;72511;45.120;20.720;2024-03-07T09:15:13;100285.13;;;5.95
82780;BMP280;72511;45.120;20.720;2024-03-07T09:25:18;100303.50;;;6.03
82780;BMP280;72511;45.120;20.720;2024-03-07T09:35:19;100310.00;;;6.09
82780;BMP280;72511;45.120;20.720;2024-03-07T09:45:22;100317.31;;;6.19
82780;BMP280;72511;45.120;20.720;2024-03-07T09:55:25;100328.81;;;6.20
82780;BMP280;72511;45.120;20.720;2024-03-07T10:05:27;100312.31;;;6.11
82780;BMP280;72511;45.120;20.720;2024-03-07T10:15:29;100325.34;;;6.12
82780;BMP280;72511;45.120;20.720;2024-03-07T10:25:32;100338.03;;;6.22
82780;BMP280;72511;45.120;20.720;2024-03-07T10:35:34;100354.53;;;6.31
82780;BMP280;72511;45.120;20.720;2024-03-07T10:45:46;100338.75;;;6.40
82780;BMP280;72511;45.120;20.720;2024-03-07T11:06:25;100347.75;;;7.02
82780;BMP280;72511;45.120;20.720;2024-03-07T11:16:27;100348.84;;;7.16
82780;BMP280;72511;45.120;20.720;2024-03-07T11:26:29;100346.28;;;6.87
82780;BMP280;72511;45.120;20.720;2024-03-07T11:36:46;100323.31;;;6.62
82780;BMP280;72511;45.120;20.720;2024-03-07T11:46:51;100340.97;;;6.73
82780;BMP280;72511;45.120;20.720;2024-03-07T11:56:52;100357.44;;;6.79
82780;BMP280;72511;45.120;20.720;2024-03-07T12:06:58;100357.06;;;6.84
82780;BMP280;72511;45.120;20.720;2024-03-07T12:17:01;100345.50;;;6.90
82780;BMP280;72511;45.120;20.720;2024-03-07T12:27:09;100351.22;;;7.03
82780;BMP280;72511;45.120;20.720;2024-03-07T12:37:12;100356.94;;;7.08
82780;BMP280;72511;45.120;20.720;2024-03-07T12:47:17;100350.41;;;7.09
82780;BMP280;72511;45.120;20.720;2024-03-07T12:57:18;100360.09;;;6.89
82780;BMP280;72511;45.120;20.720;2024-03-07T13:07:20;100366.28;;;6.86
82780;BMP280;72511;45.120;20.720;2024-03-07T13:17:23;100369.28;;;6.95
82780;BMP280;72511;45.120;20.720;2024-03-07T13:27:25;100362.78;;;6.96
82780;BMP280;72511;45.120;20.720;2024-03-07T13:37:29;100378.91;;;6.93
82780;BMP280;72511;45.120;20.720;2024-03-07T13:47:36;100387.84;;;6.65
82780;BMP280;72511;45.120;20.720;2024-03-07T13:57:51;100371.00;;;6.40
82780;BMP280;72511;45.120;20.720;2024-03-07T14:39:40;100408.22;;;6.73
82780;BMP280;72511;45.120;20.720;2024-03-07T14:49:42;100403.59;;;6.70
82780;BMP280;72511;45.120;20.720;2024-03-07T14:59:44;100403.97;;;6.62
82780;BMP280;72511;45.120;20.720;2024-03-07T15:09:47;100391.72;;;6.40
82780;BMP280;72511;45.120;20.720;2024-03-07T15:19:48;100412.47;;;6.39
82780;BMP280;72511;45.120;20.720;2024-03-07T15:29:50;100424.38;;;6.42
82780;BMP280;72511;45.120;20.720;2024-03-07T15:39:51;100443.97;;;6.42
82780;BMP280;72511;45.120;20.720;2024-03-07T15:49:54;100443.19;;;6.38
82780;BMP280;72511;45.120;20.720;2024-03-07T15:59:55;100419.81;;;6.07
82780;BMP280;72511;45.120;20.720;2024-03-07T16:09:57;100435.13;;;5.96
82780;BMP280;72511;45.120;20.720;2024-03-07T16:19:59;100461.59;;;6.01
82780;BMP280;72511;45.120;20.720;2024-03-07T16:30:00;100473.88;;;5.99
82780;BMP280;72511;45.120;20.720;2024-03-07T16:40:02;100492.69;;;5.92
82780;BMP280;72511;45.120;20.720;2024-03-07T16:50:07;100509.13;;;5.73
82780;BMP280;72511;45.120;20.720;2024-03-07T17:00:14;100488.72;;;5.54
82780;BMP280;72511;45.120;20.720;2024-03-07T17:10:20;100512.56;;;5.70
82780;BMP280;72511;45.120;20.720;2024-03-07T17:20:24;100526.38;;;5.68
82780;BMP280;72511;45.120;20.720;2024-03-07T17:30:27;100503.31;;;5.53
82780;BMP280;72511;45.120;20.720;2024-03-07T17:40:48;100509.06;;;5.52
82780;BMP280;72511;45.120;20.720;2024-03-07T17:50:51;100540.13;;;5.60
82780;BMP280;72511;45.120;20.720;2024-03-07T18:00:52;100529.41;;;5.60
82780;BMP280;72511;45.120;20.720;2024-03-07T18:10:54;100538.63;;;5.59
82780;BMP280;72511;45.120;20.720;2024-03-07T18:20:56;100544.00;;;5.62
82780;BMP280;72511;45.120;20.720;2024-03-07T18:30:58;100548.97;;;5.60
82780;BMP280;72511;45.120;20.720;2024-03-07T18:41:10;100555.13;;;5.61
82780;BMP280;72511;45.120;20.720;2024-03-07T18:51:12;100564.38;;;5.70
82780;BMP280;72511;45.120;20.720;2024-03-07T19:01:15;100574.34;;;5.73
82780;BMP280;72511;45.120;20.720;2024-03-07T19:11:16;100582.78;;;5.72
82780;BMP280;72511;45.120;20.720;2024-03-07T19:21:19;100588.91;;;5.72
82780;BMP280;72511;45.120;20.720;2024-03-07T19:31:21;100566.97;;;5.60
82780;BMP280;72511;45.120;20.720;2024-03-07T19:41:23;100595.84;;;5.73
82780;BMP280;72511;45.120;20.720;2024-03-07T19:51:27;100579.28;;;5.61
82780;BMP280;72511;45.120;20.720;2024-03-07T20:01:29;100590.41;;;5.63
82780;BMP280;72511;45.120;20.720;2024-03-07T20:11:34;100612.31;;;5.72
82780;BMP280;72511;45.120;20.720;2024-03-07T20:21:37;100616.53;;;5.73
82780;BMP280;72511;45.120;20.720;2024-03-07T20:31:40;100589.59;;;5.55
82780;BMP280;72511;45.120;20.720;2024-03-07T20:41:41;100616.56;;;5.76
82780;BMP280;72511;45.120;20.720;2024-03-07T20:51:44;100611.19;;;5.80
82780;BMP280;72511;45.120;20.720;2024-03-07T21:01:47;100609.28;;;5.84
82780;BMP280;72511;45.120;20.720;2024-03-07T21:11:55;100612.00;;;5.84
82780;BMP280;72511;45.120;20.720;2024-03-07T21:21:57;100601.97;;;5.74
82780;BMP280;72511;45.120;20.720;2024-03-07T21:31:58;100625.44;;;5.87
82780;BMP280;72511;45.120;20.720;2024-03-07T21:42:00;100621.56;;;5.85
82780;BMP280;72511;45.120;20.720;2024-03-07T21:52:02;100626.16;;;5.84
82780;BMP280;72511;45.120;20.720;2024-03-07T22:02:03;100632.31;;;5.85
82780;BMP280;72511;45.120;20.720;2024-03-07T22:12:07;100618.44;;;5.72
82780;BMP280;72511;45.120;20.720;2024-03-07T22:22:09;100630.00;;;5.83
82780;BMP280;72511;45.120;20.720;2024-03-07T22:32:12;100617.72;;;5.82
82780;BMP280;72511;45.120;20.720;2024-03-07T22:42:13;100621.16;;;5.83
82780;BMP280;72511;45.120;20.720;2024-03-07T22:52:15;100631.91;;;5.83
82780;BMP280;72511;45.120;20.720;2024-03-07T23:02:16;100612.28;;;5.65
82780;BMP280;72511;45.120;20.720;2024-03-07T23:12:18;100629.97;;;5.73
82780;BMP280;72511;45.120;20.720;2024-03-07T23:22:20;100651.03;;;5.71
82780;BMP280;72511;45.120;20.720;2024-03-07T23:32:22;100651.41;;;5.69
82780;BMP280;72511;45.120;20.720;2024-03-07T23:42:23;100650.66;;;5.69
82780;BMP280;72511;45.120;20.720;2024-03-07T23:52:24;100657.56;;;5.66
